createdAt,value
2022-10-24T00:02:29.925Z,13.10
2022-10-24T00:05:31.655Z,13.10
2022-10-24T00:08:35.176Z,13.20
2022-10-24T00:11:38.387Z,13.20
2022-10-24T00:14:40.072Z,13.30
2022-10-24T00:17:41.784Z,13.20
2022-10-24T00:23:50.868Z,13.30
2022-10-24T00:26:52.836Z,13.40
2022-10-24T00:29:54.523Z,13.40
2022-10-24T00:32:56.239Z,13.30
2022-10-24T00:35:58.009Z,13.20
2022-10-24T00:38:59.739Z,13.20
2022-10-24T00:42:01.500Z,13.20
2022-10-24T00:45:40.594Z,13.10
2022-10-24T00:48:50.286Z,13.00
2022-10-24T00:51:56.216Z,13.00
2022-10-24T00:55:00.216Z,13.00
2022-10-24T00:58:05.229Z,13.10
2022-10-24T01:01:07.085Z,12.90
2022-10-24T01:04:13.904Z,12.90
2022-10-24T01:07:18.396Z,12.90
2022-10-24T01:10:47.415Z,13.20
2022-10-24T01:14:01.596Z,13.00
2022-10-24T01:17:19.237Z,12.90
2022-10-24T01:20:51.293Z,12.80
2022-10-24T01:24:11.115Z,12.80
2022-10-24T01:27:39.540Z,12.90
2022-10-24T01:30:45.853Z,12.80
2022-10-24T01:33:56.061Z,13.10
2022-10-24T01:37:14.562Z,13.40
2022-10-24T01:40:23.223Z,13.80
2022-10-24T01:43:35.596Z,14.00
2022-10-24T01:46:51.827Z,14.30
2022-10-24T01:49:58.604Z,14.70
2022-10-24T01:53:01.690Z,14.90
2022-10-24T01:56:04.344Z,14.90
2022-10-24T01:59:28.964Z,15.00
2022-10-24T02:02:39.579Z,15.00
2022-10-24T02:05:46.021Z,15.10
2022-10-24T02:08:53.262Z,15.20
2022-10-24T02:11:57.959Z,15.10
2022-10-24T02:15:07.695Z,15.10
2022-10-24T02:18:11.587Z,15.00
2022-10-24T02:21:32.033Z,15.00
2022-10-24T02:24:54.328Z,14.90
2022-10-24T02:28:11.641Z,15.10
2022-10-24T02:31:19.114Z,15.10
2022-10-24T02:34:23.775Z,14.80
2022-10-24T02:37:28.653Z,14.80
2022-10-24T02:40:31.588Z,14.80
2022-10-24T02:43:34.788Z,14.70
2022-10-24T02:46:37.200Z,15.00
2022-10-24T02:49:39.642Z,15.10
2022-10-24T02:52:44.031Z,15.10
2022-10-24T02:55:46.218Z,15.00
2022-10-24T02:58:47.917Z,15.10
2022-10-24T03:01:49.639Z,15.20
2022-10-24T03:04:51.349Z,15.20
2022-10-24T03:07:53.111Z,15.30
2022-10-24T03:10:54.792Z,15.40
2022-10-24T03:13:56.503Z,15.30
2022-10-24T03:16:58.219Z,15.20
2022-10-24T03:19:59.943Z,15.30
2022-10-24T03:23:01.688Z,15.30
2022-10-24T03:26:03.581Z,15.40
2022-10-24T03:29:05.292Z,15.50
2022-10-24T03:32:07.101Z,15.50
2022-10-24T03:35:11.791Z,15.40
2022-10-24T03:38:15.723Z,15.40
2022-10-24T03:41:17.411Z,15.40
2022-10-24T03:44:19.038Z,15.40
2022-10-24T03:47:20.785Z,15.40
2022-10-24T03:50:22.453Z,15.60
2022-10-24T03:53:24.111Z,15.50
2022-10-24T03:56:25.777Z,15.40
2022-10-24T03:59:27.563Z,15.30
2022-10-24T04:02:29.301Z,15.30
2022-10-24T04:05:30.993Z,15.40
2022-10-24T04:08:32.681Z,15.50
2022-10-24T04:11:34.397Z,15.60
2022-10-24T04:14:36.092Z,15.40
2022-10-24T04:17:37.791Z,15.40
2022-10-24T04:20:39.576Z,15.50
2022-10-24T04:23:42.514Z,15.50
2022-10-24T04:26:44.239Z,15.50
2022-10-24T04:29:46.025Z,15.50
2022-10-24T04:32:48.072Z,15.40
2022-10-24T04:35:51.376Z,15.50
2022-10-24T04:38:53.073Z,15.50
2022-10-24T04:41:54.780Z,15.50
2022-10-24T04:44:56.443Z,15.60
2022-10-24T04:47:58.175Z,15.60
2022-10-24T04:50:59.884Z,15.60
2022-10-24T04:54:01.595Z,15.60
2022-10-24T04:57:03.432Z,15.70
2022-10-24T05:00:05.903Z,15.60
2022-10-24T05:03:07.618Z,15.70
2022-10-24T05:06:09.644Z,15.60
2022-10-24T05:09:11.286Z,15.50
2022-10-24T05:12:13.853Z,15.50
2022-10-24T05:15:15.559Z,15.50
2022-10-24T05:18:17.208Z,15.40
2022-10-24T05:21:18.878Z,15.50
2022-10-24T05:24:20.524Z,15.50
2022-10-24T05:27:24.664Z,15.60
2022-10-24T05:30:26.585Z,15.70
2022-10-24T05:33:28.355Z,15.70
2022-10-24T05:36:30.140Z,15.70
2022-10-24T05:39:31.806Z,15.80
2022-10-24T05:42:33.619Z,15.70
2022-10-24T05:45:35.356Z,15.70
2022-10-24T05:48:37.941Z,15.70
2022-10-24T05:51:39.802Z,15.60
2022-10-24T05:54:55.116Z,15.60
2022-10-24T05:58:03.337Z,15.70
2022-10-24T06:01:05.230Z,15.60
2022-10-24T06:04:09.976Z,15.70
2022-10-24T06:07:14.705Z,15.70
2022-10-24T06:10:16.400Z,15.60
2022-10-24T06:13:18.439Z,15.60
2022-10-24T06:16:20.102Z,15.60
2022-10-24T06:19:21.990Z,15.60
2022-10-24T06:22:29.531Z,15.60
2022-10-24T06:25:31.204Z,15.60
2022-10-24T06:28:32.849Z,15.60
2022-10-24T06:31:35.703Z,15.60
2022-10-24T06:34:37.589Z,15.60
2022-10-24T06:37:41.783Z,15.50
2022-10-24T06:40:46.134Z,15.50
2022-10-24T06:43:49.126Z,15.60
2022-10-24T06:46:50.802Z,15.60
2022-10-24T06:49:52.483Z,15.60
2022-10-24T06:52:54.175Z,15.60
2022-10-24T06:55:59.316Z,15.70
2022-10-24T06:59:00.987Z,15.80
2022-10-24T07:02:05.795Z,15.80
2022-10-24T07:05:12.719Z,15.90
2022-10-24T07:08:14.451Z,15.80
2022-10-24T07:11:16.153Z,15.80
2022-10-24T07:14:17.812Z,15.70
2022-10-24T07:17:20.041Z,15.80
2022-10-24T07:20:21.708Z,15.90
2022-10-24T07:23:23.368Z,15.80
2022-10-24T07:26:27.858Z,15.90
2022-10-24T07:29:29.548Z,15.80
2022-10-24T07:32:31.207Z,15.80
2022-10-24T07:35:32.877Z,15.90
2022-10-24T07:38:34.554Z,15.90
2022-10-24T07:41:40.596Z,16.00
2022-10-24T07:44:42.360Z,16.00
2022-10-24T07:47:44.315Z,16.00
2022-10-24T07:50:47.370Z,16.00
2022-10-24T07:53:49.557Z,16.00
2022-10-24T07:56:52.239Z,15.90
2022-10-24T07:59:55.493Z,15.90
2022-10-24T08:02:57.327Z,16.00
2022-10-24T08:05:59.179Z,16.00
2022-10-24T08:09:00.863Z,16.00
2022-10-24T08:12:03.676Z,16.10
2022-10-24T08:15:06.237Z,16.00
2022-10-24T08:18:07.922Z,16.20
2022-10-24T08:21:13.085Z,16.30
2022-10-24T08:24:14.750Z,16.30
2022-10-24T08:27:16.457Z,16.30
2022-10-24T08:30:20.223Z,16.40
2022-10-24T08:33:21.872Z,16.40
2022-10-24T08:36:29.947Z,16.40
2022-10-24T08:39:31.694Z,16.40
2022-10-24T08:42:34.303Z,16.40
2022-10-24T08:45:43.260Z,16.40
2022-10-24T08:48:55.375Z,16.50
2022-10-24T08:52:23.229Z,16.50
2022-10-24T08:55:50.547Z,16.50
2022-10-24T08:58:52.623Z,16.70
2022-10-24T09:02:04.421Z,16.70
2022-10-24T09:05:34.920Z,16.70
2022-10-24T09:09:01.700Z,16.80
2022-10-24T09:12:13.325Z,17.10
2022-10-24T09:15:20.678Z,17.40
2022-10-24T09:18:37.553Z,17.50
2022-10-24T09:21:42.513Z,17.30
2022-10-24T09:25:06.625Z,17.30
2022-10-24T09:28:09.754Z,17.50
2022-10-24T09:31:24.481Z,17.90
2022-10-24T09:34:26.366Z,17.80
2022-10-24T09:37:46.927Z,17.60
2022-10-24T09:40:57.514Z,17.50
2022-10-24T09:44:01.259Z,17.50
2022-10-24T09:47:06.113Z,17.40
2022-10-24T09:50:20.400Z,17.30
2022-10-24T09:53:40.909Z,17.20
2022-10-24T09:56:42.627Z,17.20
2022-10-24T09:59:49.641Z,17.30
2022-10-24T10:03:02.128Z,17.40
2022-10-24T10:06:24.127Z,17.40
2022-10-24T10:09:31.486Z,17.20
2022-10-24T10:12:38.810Z,17.30
2022-10-24T10:15:50.281Z,17.30
2022-10-24T10:19:02.343Z,17.60
2022-10-24T10:22:29.261Z,17.60
2022-10-24T10:25:32.602Z,17.70
2022-10-24T10:28:41.155Z,18.10
2022-10-24T10:32:06.996Z,18.10
2022-10-24T10:35:20.062Z,18.20
2022-10-24T10:38:30.573Z,18.20
2022-10-24T10:41:47.014Z,18.40
2022-10-24T10:45:15.897Z,18.50
2022-10-24T10:48:33.794Z,18.60
2022-10-24T10:51:48.037Z,18.50
2022-10-24T10:55:08.820Z,18.50
2022-10-24T10:58:25.425Z,18.40
2022-10-24T11:01:30.281Z,18.20
2022-10-24T11:04:42.349Z,17.90
2022-10-24T11:08:19.172Z,17.80
2022-10-24T11:11:31.164Z,17.90
2022-10-24T11:14:43.042Z,17.70
2022-10-24T11:18:13.799Z,17.80
2022-10-24T11:21:18.231Z,18.20
2022-10-24T11:24:23.229Z,19.00
2022-10-24T11:27:31.473Z,19.40
2022-10-24T11:30:47.081Z,19.30
2022-10-24T11:34:00.969Z,19.20
2022-10-24T11:37:17.411Z,19.20
2022-10-24T11:40:22.571Z,19.20
2022-10-24T11:43:35.110Z,19.30
2022-10-24T11:46:42.323Z,20.00
2022-10-24T11:49:47.928Z,20.20
2022-10-24T11:52:52.555Z,19.70
2022-10-24T11:56:03.421Z,19.00
2022-10-24T11:59:07.979Z,18.70
2022-10-24T12:02:32.723Z,18.60
2022-10-24T12:05:50.099Z,18.50
2022-10-24T12:08:54.552Z,18.50
2022-10-24T12:12:11.308Z,18.50
2022-10-24T12:15:40.618Z,18.50
2022-10-24T12:18:49.695Z,18.70
2022-10-24T12:21:58.604Z,18.90
2022-10-24T12:25:20.044Z,19.10
2022-10-24T12:28:25.719Z,19.10
2022-10-24T12:31:30.035Z,19.40
2022-10-24T12:34:46.078Z,19.30
2022-10-24T12:37:50.360Z,19.30
2022-10-24T12:40:55.340Z,19.50
2022-10-24T12:44:34.228Z,19.50
2022-10-24T12:47:58.017Z,19.30
2022-10-24T12:51:04.572Z,19.10
2022-10-24T12:54:12.157Z,18.70
2022-10-24T12:57:13.795Z,18.50
2022-10-24T13:00:29.767Z,18.40
2022-10-24T13:03:43.930Z,18.60
2022-10-24T13:07:20.973Z,18.80
2022-10-24T13:10:44.019Z,19.00
2022-10-24T13:14:07.546Z,18.70
2022-10-24T13:17:27.769Z,19.00
2022-10-24T13:20:38.119Z,19.00
2022-10-24T13:23:41.141Z,19.20
2022-10-24T13:26:48.097Z,19.50
2022-10-24T13:29:49.727Z,19.40
2022-10-24T13:32:51.641Z,19.10
2022-10-24T13:35:55.309Z,18.90
2022-10-24T13:39:00.610Z,18.60
2022-10-24T13:42:07.846Z,18.70
2022-10-24T13:45:44.703Z,18.80
2022-10-24T13:48:48.846Z,18.50
2022-10-24T13:51:54.489Z,18.40
2022-10-24T13:58:19.565Z,18.10
2022-10-24T14:01:25.629Z,18.00
2022-10-24T14:04:28.038Z,18.10
2022-10-24T14:07:33.653Z,18.20
2022-10-24T14:10:37.366Z,18.40
2022-10-24T14:13:48.823Z,18.50
2022-10-24T14:17:25.912Z,18.30
2022-10-24T14:20:34.957Z,18.10
2022-10-24T14:23:39.780Z,17.90
2022-10-24T14:26:42.558Z,17.70
2022-10-24T14:29:58.980Z,17.60
2022-10-24T14:33:21.722Z,17.50
2022-10-24T14:36:27.389Z,17.50
2022-10-24T14:39:29.852Z,17.40
2022-10-24T14:42:32.299Z,17.30
2022-10-24T14:45:33.981Z,17.30
2022-10-24T14:48:38.305Z,17.20
2022-10-24T14:51:41.428Z,17.10
2022-10-24T14:54:52.049Z,17.20
2022-10-24T14:57:54.193Z,17.30
2022-10-24T15:00:57.050Z,17.40
2022-10-24T15:04:03.547Z,17.40
2022-10-24T15:07:23.549Z,17.30
2022-10-24T15:10:28.089Z,17.20
2022-10-24T15:13:32.905Z,17.10
2022-10-24T15:16:41.955Z,17.00
2022-10-24T15:19:47.524Z,16.90
2022-10-24T15:23:00.295Z,16.80
2022-10-24T15:26:19.653Z,16.80
2022-10-24T15:29:23.075Z,16.60
2022-10-24T15:32:26.363Z,16.60
2022-10-24T15:35:29.402Z,16.50
2022-10-24T15:38:31.185Z,16.40
2022-10-24T15:41:33.345Z,16.40
2022-10-24T15:44:35.463Z,16.30
2022-10-24T15:47:37.115Z,16.30
2022-10-24T15:50:44.027Z,16.20
2022-10-24T15:53:47.943Z,16.20
2022-10-24T15:56:49.732Z,16.10
2022-10-24T15:59:51.383Z,16.10
2022-10-24T16:02:58.084Z,16.00
2022-10-24T16:05:59.844Z,16.00
2022-10-24T16:09:01.593Z,16.00
2022-10-24T16:12:03.800Z,15.90
2022-10-24T16:15:06.052Z,15.90
2022-10-24T16:18:08.281Z,15.90
2022-10-24T16:21:17.903Z,15.80
2022-10-24T16:24:19.673Z,15.80
2022-10-24T16:27:21.323Z,15.70
2022-10-24T16:30:26.113Z,15.60
2022-10-24T16:33:27.768Z,15.60
2022-10-24T16:36:29.722Z,15.50
2022-10-24T16:39:32.284Z,15.40
2022-10-24T16:42:33.976Z,15.40
2022-10-24T16:45:35.682Z,15.30
2022-10-24T16:48:37.427Z,15.30
2022-10-24T16:51:43.251Z,15.10
2022-10-24T16:54:46.104Z,15.10
2022-10-24T16:57:48.669Z,15.00
2022-10-24T17:00:50.667Z,15.00
2022-10-24T17:03:52.346Z,15.00
2022-10-24T17:06:54.355Z,15.00
2022-10-24T17:09:56.003Z,15.00
2022-10-24T17:12:57.643Z,15.00
2022-10-24T17:15:59.376Z,15.00
2022-10-24T17:19:14.722Z,15.00
2022-10-24T17:22:17.666Z,15.10
2022-10-24T17:25:26.258Z,15.10
2022-10-24T17:28:33.050Z,15.10
2022-10-24T17:31:35.774Z,15.10
2022-10-24T17:34:37.867Z,15.10
2022-10-24T17:38:08.848Z,15.10
2022-10-24T17:41:26.467Z,15.10
2022-10-24T17:44:28.446Z,15.10
2022-10-24T17:47:30.146Z,15.10
2022-10-24T17:50:31.839Z,15.10
2022-10-24T17:53:33.483Z,15.10
2022-10-24T17:56:35.618Z,15.10
2022-10-24T17:59:37.297Z,15.10
2022-10-24T18:02:52.636Z,15.10
2022-10-24T18:06:06.129Z,15.00
2022-10-24T18:09:08.056Z,15.00
2022-10-24T18:12:10.339Z,15.00
2022-10-24T18:15:16.566Z,15.00
2022-10-24T18:18:18.894Z,15.00
2022-10-24T18:21:24.260Z,14.90
2022-10-24T18:24:25.978Z,14.70
2022-10-24T18:27:27.829Z,14.60
2022-10-24T18:30:29.585Z,14.70
2022-10-24T18:33:32.505Z,14.70
2022-10-24T18:36:34.286Z,14.70
2022-10-24T18:39:36.010Z,14.60
2022-10-24T18:43:04.992Z,14.50
2022-10-24T18:46:11.714Z,14.50
2022-10-24T18:49:14.736Z,14.60
2022-10-24T18:52:18.103Z,14.60
2022-10-24T18:55:23.269Z,14.60
2022-10-24T18:58:25.015Z,14.60
2022-10-24T19:01:39.210Z,14.60
2022-10-24T19:04:43.680Z,14.60
2022-10-24T19:07:46.814Z,14.60
2022-10-24T19:10:51.543Z,14.50
2022-10-24T19:13:53.336Z,14.50
2022-10-24T19:16:58.100Z,14.50
2022-10-24T19:20:00.303Z,14.50
2022-10-24T19:23:05.080Z,14.50
2022-10-24T19:26:06.745Z,14.50
2022-10-24T19:29:08.381Z,14.50
2022-10-24T19:32:10.031Z,14.40
2022-10-24T19:35:11.747Z,14.40
2022-10-24T19:38:18.856Z,14.40
2022-10-24T19:41:20.532Z,14.40
2022-10-24T19:44:22.822Z,14.50
2022-10-24T19:47:24.495Z,14.40
2022-10-24T19:50:26.200Z,14.30
2022-10-24T19:53:27.850Z,14.30
2022-10-24T19:56:31.281Z,14.20
2022-10-24T19:59:33.941Z,14.00
2022-10-24T20:02:35.619Z,14.20
2022-10-24T20:05:37.551Z,14.00
2022-10-24T20:08:39.781Z,14.00
2022-10-24T20:11:41.473Z,14.00
2022-10-24T20:14:43.217Z,14.00
2022-10-24T20:17:45.611Z,14.00
2022-10-24T20:20:47.368Z,14.10
2022-10-24T20:23:49.788Z,14.10
2022-10-24T20:26:51.457Z,14.10
2022-10-24T20:29:53.192Z,14.00
2022-10-24T20:32:54.937Z,13.80
2022-10-24T20:36:00.971Z,13.80
2022-10-24T20:39:03.143Z,13.70
2022-10-24T20:42:05.047Z,13.80
2022-10-24T20:45:07.267Z,13.80
2022-10-24T20:48:09.174Z,13.60
2022-10-24T20:51:13.633Z,13.60
2022-10-24T20:54:15.285Z,13.60
2022-10-24T20:57:16.972Z,13.50
2022-10-24T21:00:19.342Z,13.60
2022-10-24T21:03:20.984Z,13.50
2022-10-24T21:06:25.325Z,13.60
2022-10-24T21:09:27.063Z,13.60
2022-10-24T21:12:29.865Z,13.70
2022-10-24T21:15:31.884Z,13.60
2022-10-24T21:18:33.524Z,13.60
2022-10-24T21:21:35.166Z,13.60
2022-10-24T21:24:36.808Z,13.50
2022-10-24T21:27:38.475Z,13.50
2022-10-24T21:30:40.215Z,13.50
2022-10-24T21:33:42.359Z,13.40
2022-10-24T21:36:44.237Z,13.40
2022-10-24T21:39:45.885Z,13.40
2022-10-24T21:42:47.760Z,13.30
2022-10-24T21:45:49.754Z,13.30
2022-10-24T21:48:52.801Z,13.30
2022-10-24T21:51:54.492Z,13.20
2022-10-24T21:54:56.845Z,13.20
2022-10-24T21:57:58.487Z,13.20
2022-10-24T22:01:00.274Z,13.20
2022-10-24T22:04:02.357Z,13.20
2022-10-24T22:07:05.851Z,13.20
2022-10-24T22:10:08.184Z,13.20
2022-10-24T22:13:09.899Z,13.10
2022-10-24T22:16:12.915Z,13.10
2022-10-24T22:19:14.818Z,13.10
2022-10-24T22:22:16.467Z,13.10
2022-10-24T22:25:18.161Z,13.10
2022-10-24T22:28:21.031Z,13.10
2022-10-24T22:31:24.252Z,13.10
2022-10-24T22:34:26.286Z,13.10
2022-10-24T22:37:31.412Z,13.00
2022-10-24T22:40:33.293Z,13.00
2022-10-24T22:43:35.243Z,13.00
2022-10-24T22:47:05.170Z,13.00
2022-10-24T22:50:31.157Z,13.10
2022-10-24T22:53:33.075Z,13.10
2022-10-24T22:56:36.648Z,13.20
2022-10-24T22:59:38.718Z,13.20
2022-10-24T23:02:45.402Z,13.20
2022-10-24T23:06:16.933Z,13.20
2022-10-24T23:09:18.780Z,13.20
2022-10-24T23:12:21.903Z,13.20
2022-10-24T23:15:23.903Z,13.20
2022-10-24T23:18:25.842Z,13.20
2022-10-24T23:21:35.336Z,13.20
2022-10-24T23:24:37.487Z,13.20
2022-10-24T23:27:42.312Z,13.30
2022-10-24T23:30:44.124Z,13.20
2022-10-24T23:33:46.111Z,13.20
2022-10-24T23:36:49.111Z,13.20
2022-10-24T23:39:51.018Z,13.20
2022-10-24T23:42:53.037Z,13.30
2022-10-24T23:46:13.025Z,13.20
2022-10-24T23:49:30.183Z,13.20
2022-10-24T23:52:52.214Z,13.30
2022-10-24T23:55:54.245Z,13.30
2022-10-24T23:58:56.360Z,13.30
